sensor_id;sensor_type;location;lat;lon;timestamp;pressure;altitude;pressure_sealevel;temperature;humidity
84696;BME280;74913;40.204;44.532;2024-03-02T00:00:10;88342.16;;;3.76;29.59
84696;BME280;74913;40.204;44.532;2024-03-02T00:02:45;88338.06;;;3.75;29.79
84696;BME280;74913;40.204;44.532;2024-03-02T00:05:13;88324.88;;;3.66;29.73
84696;BME280;74913;40.204;44.532;2024-03-02T00:07:43;88334.34;;;3.67;30.10
84696;BME280;74913;40.204;44.532;2024-03-02T00:10:10;88343.38;;;3.75;29.91
84696;BME280;74913;40.204;44.532;2024-03-02T00:12:40;88321.84;;;3.73;29.41
84696;BME280;74913;40.204;44.532;2024-03-02T00:15:35;88313.31;;;3.69;30.02
84696;BME280;74913;40.204;44.532;2024-03-02T00:18:06;88335.25;;;3.84;29.76
84696;BME280;74913;40.204;44.532;2024-03-02T00:20:32;88323.47;;;3.91;29.60
84696;BME280;74913;40.204;44.532;2024-03-02T00:23:06;88327.13;;;3.93;29.99
84696;BME280;74913;40.204;44.532;2024-03-02T00:25:53;88322.75;;;3.90;29.99
84696;BME280;74913;40.204;44.532;2024-03-02T00:28:20;88316.50;;;3.93;29.62
84696;BME280;74913;40.204;44.532;2024-03-02T00:33:23;88309.69;;;3.92;29.69
84696;BME280;74913;40.204;44.532;2024-03-02T00:35:49;88313.84;;;3.99;29.51
84696;BME280;74913;40.204;44.532;2024-03-02T00:38:15;88294.88;;;3.85;29.88
84696;BME280;74913;40.204;44.532;2024-03-02T00:40:45;88305.09;;;3.93;29.66
84696;BME280;74913;40.204;44.532;2024-03-02T00:43:46;88315.75;;;3.93;29.58
84696;BME280;74913;40.204;44.532;2024-03-02T00:46:15;88308.88;;;3.86;29.56
84696;BME280;74913;40.204;44.532;2024-03-02T00:51:17;88295.06;;;3.82;29.28
84696;BME280;74913;40.204;44.532;2024-03-02T00:53:43;88298.53;;;3.88;29.50
84696;BME280;74913;40.204;44.532;2024-03-02T00:56:10;88311.16;;;3.93;29.09
84696;BME280;74913;40.204;44.532;2024-03-02T00:58:38;88320.53;;;3.88;29.59
84696;BME280;74913;40.204;44.532;2024-03-02T01:01:03;88314.38;;;3.77;29.16
84696;BME280;74913;40.204;44.532;2024-03-02T01:03:31;88312.78;;;3.65;29.44
84696;BME280;74913;40.204;44.532;2024-03-02T01:05:57;88318.09;;;3.65;29.16
84696;BME280;74913;40.204;44.532;2024-03-02T01:08:24;88318.31;;;3.61;29.85
84696;BME280;74913;40.204;44.532;2024-03-02T01:10:49;88307.00;;;3.66;29.57
84696;BME280;74913;40.204;44.532;2024-03-02T01:13:15;88301.16;;;3.62;29.49
84696;BME280;74913;40.204;44.532;2024-03-02T01:15:40;88308.53;;;3.73;29.46
84696;BME280;74913;40.204;44.532;2024-03-02T01:18:06;88297.59;;;3.71;29.25
84696;BME280;74913;40.204;44.532;2024-03-02T01:20:32;88290.03;;;3.64;29.32
84696;BME280;74913;40.204;44.532;2024-03-02T01:22:57;88305.06;;;3.67;29.67
84696;BME280;74913;40.204;44.532;2024-03-02T01:25:23;88311.25;;;3.58;29.29
84696;BME280;74913;40.204;44.532;2024-03-02T01:27:48;88309.00;;;3.51;29.47
84696;BME280;74913;40.204;44.532;2024-03-02T01:30:14;88307.72;;;3.47;29.95
84696;BME280;74913;40.204;44.532;2024-03-02T01:32:40;88298.97;;;3.41;29.91
84696;BME280;74913;40.204;44.532;2024-03-02T01:35:06;88302.00;;;3.34;29.77
84696;BME280;74913;40.204;44.532;2024-03-02T01:37:32;88307.28;;;3.28;30.12
84696;BME280;74913;40.204;44.532;2024-03-02T01:39:58;88309.66;;;3.26;29.72
84696;BME280;74913;40.204;44.532;2024-03-02T01:42:24;88312.78;;;3.24;29.82
84696;BME280;74913;40.204;44.532;2024-03-02T01:44:50;88297.22;;;3.17;30.07
84696;BME280;74913;40.204;44.532;2024-03-02T01:47:16;88306.38;;;3.16;29.85
84696;BME280;74913;40.204;44.532;2024-03-02T01:49:42;88308.25;;;3.10;29.55
84696;BME280;74913;40.204;44.532;2024-03-02T01:52:08;88300.47;;;3.07;29.83
84696;BME280;74913;40.204;44.532;2024-03-02T01:54:33;88307.31;;;3.13;29.94
84696;BME280;74913;40.204;44.532;2024-03-02T01:57:00;88313.56;;;3.10;30.13
84696;BME280;74913;40.204;44.532;2024-03-02T01:59:26;88305.88;;;3.12;29.87
84696;BME280;74913;40.204;44.532;2024-03-02T02:01:52;88306.94;;;3.20;29.86
84696;BME280;74913;40.204;44.532;2024-03-02T02:04:17;88295.56;;;3.20;29.84
84696;BME280;74913;40.204;44.532;2024-03-02T02:06:46;88299.41;;;3.19;29.73
84696;BME280;74913;40.204;44.532;2024-03-02T02:09:12;88301.06;;;3.16;29.99
84696;BME280;74913;40.204;44.532;2024-03-02T02:11:37;88299.63;;;3.15;29.64
84696;BME280;74913;40.204;44.532;2024-03-02T02:14:03;88299.63;;;3.15;30.22
84696;BME280;74913;40.204;44.532;2024-03-02T02:16:28;88296.91;;;3.10;30.16
84696;BME280;74913;40.204;44.532;2024-03-02T02:18:54;88301.47;;;3.09;30.60
84696;BME280;74913;40.204;44.532;2024-03-02T02:21:23;88296.28;;;3.00;30.54
84696;BME280;74913;40.204;44.532;2024-03-02T02:23:48;88292.91;;;3.00;30.57
84696;BME280;74913;40.204;44.532;2024-03-02T02:26:15;88284.19;;;2.99;30.47
84696;BME280;74913;40.204;44.532;2024-03-02T02:28:41;88289.03;;;3.01;30.22
84696;BME280;74913;40.204;44.532;2024-03-02T02:31:13;88279.13;;;3.01;30.50
84696;BME280;74913;40.204;44.532;2024-03-02T02:33:42;88283.00;;;3.00;30.72
84696;BME280;74913;40.204;44.532;2024-03-02T02:36:08;88298.94;;;3.00;30.98
84696;BME280;74913;40.204;44.532;2024-03-02T02:38:38;88295.56;;;3.00;30.66
84696;BME280;74913;40.204;44.532;2024-03-02T02:41:04;88283.91;;;2.97;30.57
84696;BME280;74913;40.204;44.532;2024-03-02T02:43:30;88276.47;;;3.01;31.04
84696;BME280;74913;40.204;44.532;2024-03-02T02:45:55;88272.16;;;3.04;30.81
84696;BME280;74913;40.204;44.532;2024-03-02T02:48:21;88268.50;;;3.01;30.70
84696;BME280;74913;40.204;44.532;2024-03-02T02:50:46;88267.31;;;3.02;30.78
84696;BME280;74913;40.204;44.532;2024-03-02T02:53:12;88267.59;;;3.04;30.25
84696;BME280;74913;40.204;44.532;2024-03-02T02:55:39;88207.63;;;2.63;30.30
84696;BME280;74913;40.204;44.532;2024-03-02T02:58:14;88268.50;;;3.01;30.95
84696;BME280;74913;40.204;44.532;2024-03-02T03:00:40;88265.41;;;3.03;30.70
84696;BME280;74913;40.204;44.532;2024-03-02T03:03:06;88257.88;;;3.01;30.66
84696;BME280;74913;40.204;44.532;2024-03-02T03:05:31;88256.69;;;3.02;30.80
84696;BME280;74913;40.204;44.532;2024-03-02T03:07:57;88247.25;;;3.01;30.21
84696;BME280;74913;40.204;44.532;2024-03-02T03:10:22;88245.41;;;3.07;30.15
84696;BME280;74913;40.204;44.532;2024-03-02T03:12:51;88237.69;;;3.09;30.44
84696;BME280;74913;40.204;44.532;2024-03-02T03:15:17;88247.50;;;3.23;30.21
84696;BME280;74913;40.204;44.532;2024-03-02T03:17:42;88247.66;;;3.35;30.11
84696;BME280;74913;40.204;44.532;2024-03-02T03:20:09;88249.16;;;3.41;29.95
84696;BME280;74913;40.204;44.532;2024-03-02T03:22:38;88255.88;;;3.37;30.40
84696;BME280;74913;40.204;44.532;2024-03-02T03:25:04;88245.66;;;3.30;30.27
84696;BME280;74913;40.204;44.532;2024-03-02T03:27:29;88264.00;;;3.28;30.19
84696;BME280;74913;40.204;44.532;2024-03-02T03:29:55;88243.84;;;3.21;30.52
84696;BME280;74913;40.204;44.532;2024-03-02T03:32:21;88244.06;;;3.17;30.32
84696;BME280;74913;40.204;44.532;2024-03-02T03:34:47;88235.09;;;3.15;30.31
84696;BME280;74913;40.204;44.532;2024-03-02T03:37:13;88260.34;;;3.25;30.27
84696;BME280;74913;40.204;44.532;2024-03-02T03:39:39;88243.47;;;3.28;30.26
84696;BME280;74913;40.204;44.532;2024-03-02T03:42:05;88250.81;;;3.18;30.09
84696;BME280;74913;40.204;44.532;2024-03-02T03:44:30;88261.75;;;3.20;30.38
84696;BME280;74913;40.204;44.532;2024-03-02T03:46:56;88271.84;;;3.16;30.73
84696;BME280;74913;40.204;44.532;2024-03-02T03:49:22;88264.78;;;3.13;30.58
84696;BME280;74913;40.204;44.532;2024-03-02T03:51:47;88262.13;;;3.13;30.83
84696;BME280;74913;40.204;44.532;2024-03-02T03:54:13;88262.34;;;3.30;30.38
84696;BME280;74913;40.204;44.532;2024-03-02T03:56:39;88261.75;;;3.41;30.38
84696;BME280;74913;40.204;44.532;2024-03-02T03:59:04;88252.03;;;3.38;30.23
84696;BME280;74913;40.204;44.532;2024-03-02T04:01:30;88274.47;;;3.57;30.10
84696;BME280;74913;40.204;44.532;2024-03-02T04:03:57;88269.47;;;3.64;30.45
84696;BME280;74913;40.204;44.532;2024-03-02T04:06:23;88259.31;;;3.63;30.42
84696;BME280;74913;40.204;44.532;2024-03-02T04:08:49;88267.41;;;3.74;30.48
84696;BME280;74913;40.204;44.532;2024-03-02T04:11:15;88259.97;;;3.78;29.96
84696;BME280;74913;40.204;44.532;2024-03-02T04:13:40;88241.78;;;3.76;29.94
84696;BME280;74913;40.204;44.532;2024-03-02T04:16:06;88268.16;;;4.00;29.97
84696;BME280;74913;40.204;44.532;2024-03-02T04:18:32;88267.72;;;4.07;30.14
84696;BME280;74913;40.204;44.532;2024-03-02T04:20:58;88275.03;;;4.12;29.97
84696;BME280;74913;40.204;44.532;2024-03-02T04:23:25;88275.16;;;4.23;29.91
84696;BME280;74913;40.204;44.532;2024-03-02T04:25:51;88271.84;;;4.34;29.67
84696;BME280;74913;40.204;44.532;2024-03-02T04:28:17;88272.13;;;4.41;29.56
84696;BME280;74913;40.204;44.532;2024-03-02T04:30:42;88267.34;;;4.45;29.38
84696;BME280;74913;40.204;44.532;2024-03-02T04:33:08;88246.50;;;4.44;29.43
84696;BME280;74913;40.204;44.532;2024-03-02T04:35:36;88265.56;;;4.68;29.44
84696;BME280;74913;40.204;44.532;2024-03-02T04:38:01;88275.06;;;4.75;29.24
84696;BME280;74913;40.204;44.532;2024-03-02T04:40:27;88269.28;;;4.82;29.17
84696;BME280;74913;40.204;44.532;2024-03-02T04:42:52;88273.75;;;4.96;28.99
84696;BME280;74913;40.204;44.532;2024-03-02T04:45:18;88271.38;;;5.03;29.60
84696;BME280;74913;40.204;44.532;2024-03-02T04:47:44;88265.34;;;5.14;29.67
84696;BME280;74913;40.204;44.532;2024-03-02T04:50:09;88262.50;;;5.23;29.41
84696;BME280;74913;40.204;44.532;2024-03-02T04:52:36;88267.13;;;5.34;29.70
84696;BME280;74913;40.204;44.532;2024-03-02T04:55:02;88261.84;;;5.39;29.68
84696;BME280;74913;40.204;44.532;2024-03-02T04:57:54;88261.91;;;5.50;29.63
84696;BME280;74913;40.204;44.532;2024-03-02T05:00:22;88259.75;;;5.60;29.56
84696;BME280;74913;40.204;44.532;2024-03-02T05:02:48;88260.00;;;5.67;29.61
84696;BME280;74913;40.204;44.532;2024-03-02T05:05:13;88245.47;;;5.68;29.58
84696;BME280;74913;40.204;44.532;2024-03-02T05:07:41;88264.69;;;5.83;29.33
84696;BME280;74913;40.204;44.532;2024-03-02T05:10:10;88266.91;;;5.91;29.77
84696;BME280;74913;40.204;44.532;2024-03-02T05:12:37;88261.84;;;6.04;29.78
84696;BME280;74913;40.204;44.532;2024-03-02T05:15:12;88265.50;;;6.12;29.79
84696;BME280;74913;40.204;44.532;2024-03-02T05:17:39;88267.97;;;6.21;29.18
84696;BME280;74913;40.204;44.532;2024-03-02T05:20:06;88253.38;;;6.22;29.46
84696;BME280;74913;40.204;44.532;2024-03-02T05:22:36;88264.56;;;6.31;28.98
84696;BME280;74913;40.204;44.532;2024-03-02T05:25:02;88259.22;;;6.37;28.74
84696;BME280;74913;40.204;44.532;2024-03-02T05:27:28;88256.81;;;6.50;28.98
84696;BME280;74913;40.204;44.532;2024-03-02T05:29:54;88256.56;;;6.59;28.58
84696;BME280;74913;40.204;44.532;2024-03-02T05:32:19;88245.13;;;6.64;28.54
84696;BME280;74913;40.204;44.532;2024-03-02T05:34:45;88261.91;;;6.81;28.83
84696;BME280;74913;40.204;44.532;2024-03-02T05:37:11;88259.69;;;6.96;28.29
84696;BME280;74913;40.204;44.532;2024-03-02T05:39:36;88252.41;;;7.02;28.45
84696;BME280;74913;40.204;44.532;2024-03-02T05:42:02;88253.38;;;7.16;28.45
84696;BME280;74913;40.204;44.532;2024-03-02T05:44:28;88263.06;;;7.36;28.55
84696;BME280;74913;40.204;44.532;2024-03-02T05:46:55;88261.56;;;7.46;28.05
84696;BME280;74913;40.204;44.532;2024-03-02T05:49:20;88257.63;;;7.52;28.37
84696;BME280;74913;40.204;44.532;2024-03-02T05:51:46;88268.31;;;7.69;27.88
84696;BME280;74913;40.204;44.532;2024-03-02T05:54:12;88260.47;;;7.76;27.33
84696;BME280;74913;40.204;44.532;2024-03-02T05:56:37;88262.38;;;7.87;27.69
84696;BME280;74913;40.204;44.532;2024-03-02T05:59:03;88266.97;;;7.92;27.75
84696;BME280;74913;40.204;44.532;2024-03-02T06:01:47;88261.84;;;8.00;26.96
84696;BME280;74913;40.204;44.532;2024-03-02T06:04:14;88269.09;;;8.10;27.43
84696;BME280;74913;40.204;44.532;2024-03-02T06:06:40;88257.13;;;8.17;27.06
84696;BME280;74913;40.204;44.532;2024-03-02T06:09:06;88257.59;;;8.26;27.27
84696;BME280;74913;40.204;44.532;2024-03-02T06:11:38;88252.44;;;8.34;26.80
84696;BME280;74913;40.204;44.532;2024-03-02T06:14:05;88241.75;;;8.28;27.21
84696;BME280;74913;40.204;44.532;2024-03-02T06:16:31;88253.53;;;8.50;26.71
84696;BME280;74913;40.204;44.532;2024-03-02T06:18:57;88264.44;;;8.63;26.73
84696;BME280;74913;40.204;44.532;2024-03-02T06:21:26;88249.81;;;8.64;26.72
84696;BME280;74913;40.204;44.532;2024-03-02T06:23:53;88260.72;;;8.71;27.09
84696;BME280;74913;40.204;44.532;2024-03-02T06:26:18;88256.06;;;8.72;26.94
84696;BME280;74913;40.204;44.532;2024-03-02T06:28:45;88254.63;;;8.71;26.71
84696;BME280;74913;40.204;44.532;2024-03-02T06:31:10;88252.69;;;8.71;25.88
84696;BME280;74913;40.204;44.532;2024-03-02T06:33:36;88260.00;;;8.71;26.03
84696;BME280;74913;40.204;44.532;2024-03-02T06:36:02;88258.28;;;8.68;26.39
84696;BME280;74913;40.204;44.532;2024-03-02T06:38:28;88260.44;;;8.75;26.27
84696;BME280;74913;40.204;44.532;2024-03-02T06:40:54;88253.09;;;8.81;26.76
84696;BME280;74913;40.204;44.532;2024-03-02T06:43:21;88247.44;;;8.84;26.33
84696;BME280;74913;40.204;44.532;2024-03-02T06:45:50;88250.06;;;8.90;26.63
84696;BME280;74913;40.204;44.532;2024-03-02T06:48:16;88251.53;;;8.91;27.13
84696;BME280;74913;40.204;44.532;2024-03-02T06:50:46;88241.53;;;8.91;27.01
84696;BME280;74913;40.204;44.532;2024-03-02T06:53:12;88244.94;;;8.92;26.89
84696;BME280;74913;40.204;44.532;2024-03-02T06:55:38;88242.25;;;8.92;26.80
84696;BME280;74913;40.204;44.532;2024-03-02T06:58:03;88257.91;;;8.88;26.86
84696;BME280;74913;40.204;44.532;2024-03-02T07:00:30;88256.00;;;8.83;27.07
84696;BME280;74913;40.204;44.532;2024-03-02T07:02:55;88246.81;;;8.73;26.92
84696;BME280;74913;40.204;44.532;2024-03-02T07:05:21;88248.72;;;8.78;26.97
84696;BME280;74913;40.204;44.532;2024-03-02T07:07:47;88241.19;;;8.76;27.13
84696;BME280;74913;40.204;44.532;2024-03-02T07:10:12;88247.63;;;8.92;26.76
84696;BME280;74913;40.204;44.532;2024-03-02T07:12:38;88236.88;;;8.92;26.78
84696;BME280;74913;40.204;44.532;2024-03-02T07:15:04;88239.72;;;9.05;27.20
84696;BME280;74913;40.204;44.532;2024-03-02T07:17:30;88232.91;;;9.04;26.39
84696;BME280;74913;40.204;44.532;2024-03-02T07:19:58;88234.34;;;9.05;26.47
84696;BME280;74913;40.204;44.532;2024-03-02T07:22:23;88231.88;;;9.07;27.15
84696;BME280;74913;40.204;44.532;2024-03-02T07:24:49;88233.53;;;9.16;26.28
84696;BME280;74913;40.204;44.532;2024-03-02T07:27:15;88227.09;;;9.24;25.21
84696;BME280;74913;40.204;44.532;2024-03-02T07:29:42;88234.59;;;9.31;26.02
84696;BME280;74913;40.204;44.532;2024-03-02T07:32:09;88220.66;;;9.33;25.48
84696;BME280;74913;40.204;44.532;2024-03-02T07:34:35;88215.81;;;9.31;25.95
84696;BME280;74913;40.204;44.532;2024-03-02T07:37:01;88208.06;;;9.22;25.55
84696;BME280;74913;40.204;44.532;2024-03-02T07:39:27;88205.50;;;9.11;25.01
84696;BME280;74913;40.204;44.532;2024-03-02T07:41:53;88212.06;;;9.16;25.52
84696;BME280;74913;40.204;44.532;2024-03-02T07:44:19;88195.00;;;9.13;25.41
84696;BME280;74913;40.204;44.532;2024-03-02T07:46:45;88198.03;;;9.28;25.67
84696;BME280;74913;40.204;44.532;2024-03-02T07:49:20;88196.22;;;9.36;25.14
84696;BME280;74913;40.204;44.532;2024-03-02T07:51:46;88159.28;;;9.24;25.83
84696;BME280;74913;40.204;44.532;2024-03-02T07:54:12;88189.94;;;9.52;24.98
84696;BME280;74913;40.204;44.532;2024-03-02T07:56:38;88182.56;;;9.58;25.56
84696;BME280;74913;40.204;44.532;2024-03-02T07:59:04;88178.34;;;9.63;24.73
84696;BME280;74913;40.204;44.532;2024-03-02T08:01:31;88180.75;;;9.66;25.22
84696;BME280;74913;40.204;44.532;2024-03-02T08:04:01;88181.41;;;9.73;24.71
84696;BME280;74913;40.204;44.532;2024-03-02T08:06:28;88177.91;;;9.78;25.39
84696;BME280;74913;40.204;44.532;2024-03-02T08:08:55;88168.63;;;9.79;25.22
84696;BME280;74913;40.204;44.532;2024-03-02T08:11:21;88163.69;;;9.83;25.15
84696;BME280;74913;40.204;44.532;2024-03-02T08:13:47;88164.44;;;9.83;25.38
84696;BME280;74913;40.204;44.532;2024-03-02T08:16:14;88160.28;;;9.82;24.57
84696;BME280;74913;40.204;44.532;2024-03-02T08:18:40;88151.06;;;9.78;24.79
84696;BME280;74913;40.204;44.532;2024-03-02T08:21:06;88154.69;;;9.80;24.76
84696;BME280;74913;40.204;44.532;2024-03-02T08:23:34;88148.03;;;9.87;24.87
84696;BME280;74913;40.204;44.532;2024-03-02T08:26:00;88147.00;;;9.90;25.03
84696;BME280;74913;40.204;44.532;2024-03-02T08:28:25;88125.06;;;9.86;25.06
84696;BME280;74913;40.204;44.532;2024-03-02T08:30:51;88141.84;;;9.92;24.61
84696;BME280;74913;40.204;44.532;2024-03-02T08:33:16;88139.88;;;9.92;24.97
84696;BME280;74913;40.204;44.532;2024-03-02T08:35:42;88130.59;;;9.93;25.07
84696;BME280;74913;40.204;44.532;2024-03-02T08:38:08;88134.44;;;9.98;24.57
84696;BME280;74913;40.204;44.532;2024-03-02T08:40:34;88113.09;;;9.87;24.87
84696;BME280;74913;40.204;44.532;2024-03-02T08:42:59;88122.75;;;9.95;24.81
84696;BME280;74913;40.204;44.532;2024-03-02T08:45:25;88118.09;;;9.96;25.12
84696;BME280;74913;40.204;44.532;2024-03-02T08:47:51;88111.25;;;9.95;24.79
84696;BME280;74913;40.204;44.532;2024-03-02T08:50:16;88114.88;;;9.97;25.22
84696;BME280;74913;40.204;44.532;2024-03-02T08:52:42;88115.94;;;9.94;25.01
84696;BME280;74913;40.204;44.532;2024-03-02T08:55:08;88110.25;;;9.98;25.06
84696;BME280;74913;40.204;44.532;2024-03-02T08:57:34;88112.84;;;10.03;24.50
84696;BME280;74913;40.204;44.532;2024-03-02T09:00:00;88108.50;;;10.00;24.90
84696;BME280;74913;40.204;44.532;2024-03-02T09:02:26;88091.94;;;9.96;24.53
84696;BME280;74913;40.204;44.532;2024-03-02T09:04:52;88074.81;;;9.81;24.83
84696;BME280;74913;40.204;44.532;2024-03-02T09:07:18;88097.25;;;10.02;25.43
84696;BME280;74913;40.204;44.532;2024-03-02T09:09:43;88092.50;;;10.08;24.53
84696;BME280;74913;40.204;44.532;2024-03-02T09:12:09;88080.75;;;10.11;25.02
84696;BME280;74913;40.204;44.532;2024-03-02T09:14:36;88082.66;;;10.16;25.37
84696;BME280;74913;40.204;44.532;2024-03-02T09:17:02;88082.66;;;10.16;24.92
84696;BME280;74913;40.204;44.532;2024-03-02T09:19:29;88075.81;;;10.15;25.57
84696;BME280;74913;40.204;44.532;2024-03-02T09:21:54;88080.16;;;10.18;25.15
84696;BME280;74913;40.204;44.532;2024-03-02T09:24:21;88073.13;;;10.15;25.23
84696;BME280;74913;40.204;44.532;2024-03-02T09:26:47;88071.28;;;10.23;25.64
84696;BME280;74913;40.204;44.532;2024-03-02T09:29:13;88067.38;;;10.24;25.02
84696;BME280;74913;40.204;44.532;2024-03-02T09:31:40;88047.50;;;10.14;25.16
84696;BME280;74913;40.204;44.532;2024-03-02T09:34:06;88064.91;;;10.26;25.24
84696;BME280;74913;40.204;44.532;2024-03-02T09:36:32;88071.41;;;10.30;25.36
84696;BME280;74913;40.204;44.532;2024-03-02T09:38:58;88067.19;;;10.35;25.32
84696;BME280;74913;40.204;44.532;2024-03-02T09:41:24;88063.28;;;10.36;25.03
84696;BME280;74913;40.204;44.532;2024-03-02T09:43:50;88055.81;;;10.42;25.43
84696;BME280;74913;40.204;44.532;2024-03-02T09:46:16;88041.75;;;10.36;24.54
84696;BME280;74913;40.204;44.532;2024-03-02T09:48:44;88053.78;;;10.48;24.62
84696;BME280;74913;40.204;44.532;2024-03-02T09:51:10;88062.50;;;10.54;24.74
84696;BME280;74913;40.204;44.532;2024-03-02T09:53:37;88051.94;;;10.56;24.99
84696;BME280;74913;40.204;44.532;2024-03-02T09:56:03;88041.38;;;10.58;25.32
84696;BME280;74913;40.204;44.532;2024-03-02T09:58:30;88042.53;;;10.63;25.24
84696;BME280;74913;40.204;44.532;2024-03-02T10:00:56;88028.88;;;10.61;25.11
84696;BME280;74913;40.204;44.532;2024-03-02T10:03:23;88036.00;;;10.58;24.93
84696;BME280;74913;40.204;44.532;2024-03-02T10:05:51;88019.03;;;10.50;25.08
84696;BME280;74913;40.204;44.532;2024-03-02T10:08:17;88026.47;;;10.57;25.00
84696;BME280;74913;40.204;44.532;2024-03-02T10:10:42;88024.31;;;10.56;24.70
84696;BME280;74913;40.204;44.532;2024-03-02T10:13:10;88028.56;;;10.64;24.81
84696;BME280;74913;40.204;44.532;2024-03-02T10:15:37;87989.97;;;10.49;25.17
84696;BME280;74913;40.204;44.532;2024-03-02T10:18:08;88021.53;;;10.74;24.29
84696;BME280;74913;40.204;44.532;2024-03-02T10:20:36;88017.59;;;10.75;24.62
84696;BME280;74913;40.204;44.532;2024-03-02T10:23:12;88016.16;;;10.74;24.40
84696;BME280;74913;40.204;44.532;2024-03-02T10:25:38;88016.75;;;10.80;24.34
84696;BME280;74913;40.204;44.532;2024-03-02T10:28:04;88013.44;;;10.87;24.97
84696;BME280;74913;40.204;44.532;2024-03-02T10:30:35;88006.75;;;10.94;24.49
84696;BME280;74913;40.204;44.532;2024-03-02T10:33:02;88005.38;;;11.01;23.66
84696;BME280;74913;40.204;44.532;2024-03-02T10:35:28;88005.47;;;11.08;23.41
84696;BME280;74913;40.204;44.532;2024-03-02T10:37:54;87988.81;;;10.97;23.73
84696;BME280;74913;40.204;44.532;2024-03-02T10:40:23;88003.31;;;11.07;23.54
84696;BME280;74913;40.204;44.532;2024-03-02T10:42:50;87967.50;;;10.85;23.90
84696;BME280;74913;40.204;44.532;2024-03-02T10:45:20;87999.78;;;11.12;23.77
84696;BME280;74913;40.204;44.532;2024-03-02T10:47:50;87999.16;;;11.19;23.41
84696;BME280;74913;40.204;44.532;2024-03-02T10:50:15;87988.13;;;11.30;23.29
84696;BME280;74913;40.204;44.532;2024-03-02T10:52:41;87988.94;;;11.38;23.49
84696;BME280;74913;40.204;44.532;2024-03-02T10:55:09;87987.53;;;11.37;23.33
84696;BME280;74913;40.204;44.532;2024-03-02T10:57:42;87986.78;;;11.36;21.89
84696;BME280;74913;40.204;44.532;2024-03-02T11:00:14;87989.28;;;11.34;23.20
84696;BME280;74913;40.204;44.532;2024-03-02T11:02:50;87967.66;;;11.27;22.96
84696;BME280;74913;40.204;44.532;2024-03-02T11:05:27;87983.75;;;11.40;22.47
84696;BME280;74913;40.204;44.532;2024-03-02T11:08:00;87949.44;;;11.20;22.89
84696;BME280;74913;40.204;44.532;2024-03-02T11:10:27;87978.53;;;11.34;22.53
84696;BME280;74913;40.204;44.532;2024-03-02T11:13:00;87967.00;;;11.34;22.62
84696;BME280;74913;40.204;44.532;2024-03-02T11:15:27;87969.91;;;11.36;23.36
84696;BME280;74913;40.204;44.532;2024-03-02T11:17:54;87963.47;;;11.39;22.68
84696;BME280;74913;40.204;44.532;2024-03-02T11:20:20;87963.16;;;11.42;22.45
84696;BME280;74913;40.204;44.532;2024-03-02T11:22:46;87966.06;;;11.44;23.06
84696;BME280;74913;40.204;44.532;2024-03-02T11:25:28;87965.72;;;11.48;21.66
84696;BME280;74913;40.204;44.532;2024-03-02T11:33:00;87950.09;;;11.80;22.30
84696;BME280;74913;40.204;44.532;2024-03-02T11:35:29;87944.91;;;11.82;22.26
84696;BME280;74913;40.204;44.532;2024-03-02T11:37:55;87950.69;;;11.86;22.20
84696;BME280;74913;40.204;44.532;2024-03-02T11:40:28;87946.34;;;11.83;22.24
84696;BME280;74913;40.204;44.532;2024-03-02T11:42:54;87942.06;;;11.88;22.80
84696;BME280;74913;40.204;44.532;2024-03-02T11:45:24;87943.84;;;11.85;21.57
84696;BME280;74913;40.204;44.532;2024-03-02T11:47:50;87951.72;;;11.83;22.27
84696;BME280;74913;40.204;44.532;2024-03-02T11:50:40;87948.47;;;11.77;21.78
84696;BME280;74913;40.204;44.532;2024-03-02T11:53:07;87921.97;;;11.55;21.29
84696;BME280;74913;40.204;44.532;2024-03-02T11:55:38;87943.81;;;11.65;21.89
84696;BME280;74913;40.204;44.532;2024-03-02T11:58:05;87940.22;;;11.62;21.89
84696;BME280;74913;40.204;44.532;2024-03-02T12:00:30;87933.56;;;11.63;21.95
84696;BME280;74913;40.204;44.532;2024-03-02T12:03:06;87930.75;;;11.69;21.18
84696;BME280;74913;40.204;44.532;2024-03-02T12:05:33;87930.84;;;11.76;21.65
84696;BME280;74913;40.204;44.532;2024-03-02T12:08:00;87921.72;;;11.79;21.94
84696;BME280;74913;40.204;44.532;2024-03-02T12:10:27;87925.19;;;11.87;22.13
84696;BME280;74913;40.204;44.532;2024-03-02T12:13:05;87926.25;;;11.84;21.89
84696;BME280;74913;40.204;44.532;2024-03-02T12:15:34;87922.09;;;11.83;21.80
84696;BME280;74913;40.204;44.532;2024-03-02T12:18:01;87921.25;;;11.88;21.51
84696;BME280;74913;40.204;44.532;2024-03-02T12:20:28;87924.34;;;11.92;21.64
84696;BME280;74913;40.204;44.532;2024-03-02T12:22:57;87923.50;;;11.97;22.12
84696;BME280;74913;40.204;44.532;2024-03-02T12:25:24;87906.41;;;11.95;21.92
84696;BME280;74913;40.204;44.532;2024-03-02T12:27:55;87906.22;;;12.00;20.88
84696;BME280;74913;40.204;44.532;2024-03-02T12:30:22;87911.63;;;12.00;21.84
84696;BME280;74913;40.204;44.532;2024-03-02T12:32:48;87911.63;;;12.00;21.49
84696;BME280;74913;40.204;44.532;2024-03-02T12:35:14;87906.44;;;12.02;21.56
84696;BME280;74913;40.204;44.532;2024-03-02T12:40:12;87910.63;;;12.11;21.75
84696;BME280;74913;40.204;44.532;2024-03-02T12:42:39;87884.66;;;12.00;21.51
84696;BME280;74913;40.204;44.532;2024-03-02T12:45:07;87899.59;;;12.01;21.72
84696;BME280;74913;40.204;44.532;2024-03-02T12:47:34;87890.72;;;11.93;21.78
84696;BME280;74913;40.204;44.532;2024-03-02T12:49:59;87890.53;;;11.91;22.18
84696;BME280;74913;40.204;44.532;2024-03-02T12:52:25;87902.19;;;11.86;21.36
84696;BME280;74913;40.204;44.532;2024-03-02T12:54:51;87897.97;;;11.78;21.94
84696;BME280;74913;40.204;44.532;2024-03-02T12:57:21;87893.97;;;11.71;21.49
84696;BME280;74913;40.204;44.532;2024-03-02T12:59:47;87880.34;;;11.56;21.84
84696;BME280;74913;40.204;44.532;2024-03-02T13:02:18;87888.22;;;11.54;20.12
84696;BME280;74913;40.204;44.532;2024-03-02T13:04:44;87879.88;;;11.44;21.15
84696;BME280;74913;40.204;44.532;2024-03-02T13:07:11;87881.22;;;11.38;21.18
84696;BME280;74913;40.204;44.532;2024-03-02T13:09:39;87885.50;;;11.33;21.28